Time;durP1;ratioP1;P1;durP2;ratioP2;P2;SDS_P1;SDS_P2;PMS_P1;PMS_P2;Temp;Humidity;BMP_temperature;BMP_pressure;BME280_temperature;BME280_humidity;BME280_pressure;Samples;Min_cycle;Max_cycle;Signal;HPM_P1;HPM_P2
2021/03/03 00:00:40;;;;;;;19.00;10.05;;;22.80;33.40;;;;;;5085232;28;20392;-77
2021/03/03 00:03:06;;;;;;;21.65;10.18;;;22.70;33.40;;;;;;5087583;28;20028;-78
2021/03/03 00:05:32;;;;;;;21.13;10.23;;;22.70;33.40;;;;;;5091061;28;20063;-77
2021/03/03 00:07:57;;;;;;;23.95;10.43;;;22.70;33.40;;;;;;5092275;28;20103;-77
2021/03/03 00:10:23;;;;;;;23.27;10.45;;;22.70;33.50;;;;;;5092667;28;20040;-77
2021/03/03 00:12:49;;;;;;;21.67;10.27;;;22.70;33.40;;;;;;5092854;28;20580;-77
2021/03/03 00:15:15;;;;;;;20.08;10.15;;;22.70;33.50;;;;;;5091251;28;20039;-79
2021/03/03 00:17:40;;;;;;;20.55;10.98;;;22.70;33.50;;;;;;5092134;28;20040;-79
2021/03/03 00:20:06;;;;;;;23.02;10.77;;;22.70;33.50;;;;;;5068532;28;20032;-78
2021/03/03 00:22:32;;;;;;;16.90;10.38;;;22.60;33.40;;;;;;5093577;28;20032;-79
2021/03/03 00:24:58;;;;;;;27.98;11.15;;;22.60;33.50;;;;;;5093838;28;20028;-79
2021/03/03 00:27:23;;;;;;;20.70;9.88;;;22.60;33.50;;;;;;5084807;28;20035;-78
2021/03/03 00:29:49;;;;;;;21.08;10.40;;;22.60;33.50;;;;;;5087427;28;20551;-79
2021/03/03 00:32:14;;;;;;;22.35;10.63;;;22.60;33.50;;;;;;5085691;28;20047;-78
2021/03/03 00:34:40;;;;;;;22.05;11.40;;;22.60;33.50;;;;;;5065500;28;20043;-79
2021/03/03 00:37:05;;;;;;;31.63;11.43;;;22.60;33.50;;;;;;5092640;28;20035;-78
2021/03/03 00:39:31;;;;;;;26.63;11.70;;;22.60;33.50;;;;;;5070432;28;20044;-78
2021/03/03 00:41:57;;;;;;;21.95;11.35;;;22.60;33.40;;;;;;5091030;28;20118;-78
2021/03/03 00:44:23;;;;;;;19.90;10.18;;;22.60;33.40;;;;;;5089912;28;20032;-78
2021/03/03 00:46:48;;;;;;;20.27;10.45;;;22.60;33.40;;;;;;5090572;28;20039;-72
2021/03/03 00:49:14;;;;;;;21.13;11.75;;;22.60;33.40;;;;;;5091662;28;20059;-72
2021/03/03 00:51:40;;;;;;;27.35;13.57;;;22.60;33.40;;;;;;5092076;28;20061;-72
2021/03/03 00:54:05;;;;;;;22.05;11.43;;;22.60;33.40;;;;;;5087792;28;20436;-72
2021/03/03 00:56:31;;;;;;;26.80;11.35;;;22.60;33.40;;;;;;5089103;28;20036;-71
2021/03/03 00:58:56;;;;;;;21.33;11.15;;;22.60;33.40;;;;;;5093473;28;20024;-72
2021/03/03 01:01:22;;;;;;;22.35;10.90;;;22.60;33.40;;;;;;5084034;28;20044;-72
2021/03/03 01:03:48;;;;;;;26.25;12.15;;;22.60;33.40;;;;;;5084672;28;20111;-72
2021/03/03 01:06:14;;;;;;;22.30;12.55;;;22.60;33.40;;;;;;5093149;28;20043;-72
2021/03/03 01:08:40;;;;;;;23.25;11.60;;;22.50;33.40;;;;;;5090886;28;20028;-72
2021/03/03 01:11:06;;;;;;;22.73;11.25;;;22.60;33.40;;;;;;5092008;28;20024;-72
2021/03/03 01:13:32;;;;;;;23.63;12.93;;;22.50;33.50;;;;;;5090663;28;20102;-72
2021/03/03 01:15:57;;;;;;;30.17;11.90;;;22.60;33.50;;;;;;5091646;28;20031;-72
2021/03/03 01:18:23;;;;;;;22.50;13.52;;;22.60;33.50;;;;;;5090732;28;20476;-72
2021/03/03 01:20:49;;;;;;;21.02;12.15;;;22.50;33.50;;;;;;5089684;28;20016;-72
2021/03/03 01:23:14;;;;;;;23.55;12.40;;;22.50;33.50;;;;;;5091056;28;20133;-72
2021/03/03 01:25:40;;;;;;;27.60;12.45;;;22.50;33.50;;;;;;5091628;28;20170;-72
2021/03/03 01:28:05;;;;;;;22.95;12.85;;;22.50;33.50;;;;;;5091449;28;20364;-72
2021/03/03 01:30:31;;;;;;;25.50;13.20;;;22.50;33.50;;;;;;5082198;28;20139;-72
2021/03/03 01:32:57;;;;;;;24.83;13.38;;;22.50;33.60;;;;;;5082679;28;20054;-72
2021/03/03 01:35:22;;;;;;;24.95;12.95;;;22.50;33.60;;;;;;5088399;28;20012;-73
2021/03/03 01:37:48;;;;;;;24.42;14.07;;;22.40;33.60;;;;;;5091561;28;20028;-73
2021/03/03 01:40:14;;;;;;;27.85;14.80;;;22.40;33.60;;;;;;5088138;28;20020;-73
2021/03/03 01:42:39;;;;;;;24.63;13.57;;;22.40;34.30;;;;;;5086530;28;20060;-72
2021/03/03 01:45:06;;;;;;;26.80;15.88;;;22.40;33.60;;;;;;5091593;28;20031;-72
2021/03/03 01:47:31;;;;;;;29.50;14.82;;;22.40;33.70;;;;;;5091213;28;20028;-72
2021/03/03 01:50:07;;;;;;;27.25;16.02;;;22.40;33.70;;;;;;5090581;28;20026;-72
2021/03/03 01:52:33;;;;;;;25.17;14.95;;;22.40;33.70;;;;;;5087818;28;20078;-72
2021/03/03 01:54:59;;;;;;;26.80;13.98;;;22.30;33.70;;;;;;5090218;28;20028;-72
2021/03/03 01:57:25;;;;;;;35.65;16.27;;;22.30;33.70;;;;;;5089912;28;20020;-72
2021/03/03 01:59:51;;;;;;;28.13;15.50;;;22.30;33.70;;;;;;5084982;28;20099;-72
2021/03/03 02:02:17;;;;;;;26.48;14.60;;;22.30;33.80;;;;;;5082005;28;20107;-72
2021/03/03 02:04:42;;;;;;;34.13;18.30;;;22.30;33.80;;;;;;5083266;28;20078;-72
2021/03/03 02:07:16;;;;;;;34.50;16.75;;;22.30;33.90;;;;;;5088740;28;20051;-72
2021/03/03 02:10:08;;;;;;;32.33;16.77;;;22.30;33.90;;;;;;5090246;28;20560;-72
2021/03/03 02:12:57;;;;;;;30.75;16.88;;;22.30;33.90;;;;;;5090007;28;20028;-72
2021/03/03 02:15:23;;;;;;;30.55;15.57;;;22.20;33.90;;;;;;5088730;28;20023;-72
2021/03/03 02:17:49;;;;;;;26.30;14.95;;;22.20;33.90;;;;;;5089819;28;20024;-72
2021/03/03 02:20:14;;;;;;;29.63;15.82;;;22.20;33.90;;;;;;5068824;28;20036;-72
2021/03/03 02:22:46;;;;;;;31.45;14.63;;;22.20;33.90;;;;;;5088229;28;20047;-72
2021/03/03 02:25:36;;;;;;;29.70;15.73;;;22.20;33.90;;;;;;5079851;28;20102;-71
2021/03/03 02:28:03;;;;;;;34.60;16.95;;;22.20;33.90;;;;;;5087768;28;20521;-72
2021/03/03 02:30:32;;;;;;;28.00;15.35;;;22.10;33.90;;;;;;5066555;28;20047;-72
2021/03/03 02:32:58;;;;;;;33.58;14.93;;;22.10;33.90;;;;;;5080951;28;20062;-72
2021/03/03 02:35:25;;;;;;;32.33;14.82;;;22.10;33.90;;;;;;5068455;28;20430;-72
2021/03/03 02:38:00;;;;;;;32.28;14.60;;;22.10;33.90;;;;;;5089964;28;20023;-71
2021/03/03 02:40:42;;;;;;;24.38;13.98;;;22.10;33.90;;;;;;5084056;28;20032;-71
2021/03/03 02:43:12;;;;;;;25.92;15.63;;;22.10;34.20;;;;;;5084451;28;20031;-71
2021/03/03 02:45:38;;;;;;;22.85;12.77;;;22.10;33.90;;;;;;5087191;28;20060;-72
2021/03/03 02:48:04;;;;;;;21.73;12.25;;;22.10;33.90;;;;;;5072576;28;20457;-72
2021/03/03 02:50:29;;;;;;;22.40;12.73;;;22.10;33.90;;;;;;5087359;28;20072;-71
2021/03/03 02:52:56;;;;;;;25.25;13.00;;;22.10;33.90;;;;;;5082739;28;20411;-71
2021/03/03 02:55:26;;;;;;;26.60;13.65;;;22.10;33.90;;;;;;5089698;28;20024;-72
2021/03/03 02:57:52;;;;;;;24.98;13.60;;;22.10;33.90;;;;;;5089961;28;20445;-72
2021/03/03 03:00:38;;;;;;;30.20;13.27;;;22.10;33.90;;;;;;5088501;28;20051;-71
2021/03/03 03:03:15;;;;;;;28.05;13.60;;;22.10;33.90;;;;;;5093251;28;20020;-72
2021/03/03 03:05:43;;;;;;;29.67;14.23;;;22.10;33.90;;;;;;5090281;28;20032;-72
2021/03/03 03:08:11;;;;;;;25.83;13.50;;;22.10;33.90;;;;;;5088765;28;20044;-71
2021/03/03 03:10:37;;;;;;;24.92;13.00;;;22.10;33.90;;;;;;5080758;28;20377;-72
2021/03/03 03:13:02;;;;;;;25.75;13.60;;;22.10;33.90;;;;;;5082919;28;20031;-72
2021/03/03 03:15:31;;;;;;;26.95;13.82;;;22.10;33.90;;;;;;5090905;28;20106;-72
2021/03/03 03:18:13;;;;;;;24.05;13.27;;;22.10;33.90;;;;;;5092946;28;20028;-72
2021/03/03 03:20:39;;;;;;;25.80;13.27;;;22.10;33.90;;;;;;5083814;28;20028;-72
2021/03/03 03:23:05;;;;;;;29.65;14.05;;;22.10;33.90;;;;;;5092263;28;20032;-72
2021/03/03 03:25:31;;;;;;;24.88;13.30;;;22.00;33.90;;;;;;5093374;28;20031;-72
2021/03/03 03:27:58;;;;;;;27.83;14.02;;;22.00;33.90;;;;;;5093014;28;20028;-72
2021/03/03 03:30:23;;;;;;;26.17;13.63;;;22.00;33.90;;;;;;5084510;28;20462;-72
2021/03/03 03:32:49;;;;;;;27.35;13.77;;;22.00;33.90;;;;;;5067643;28;20047;-72
2021/03/03 03:35:15;;;;;;;25.05;13.13;;;22.00;33.90;;;;;;5088450;28;20033;-72
2021/03/03 03:37:40;;;;;;;27.52;13.68;;;22.00;33.90;;;;;;5094041;28;20108;-72
2021/03/03 03:40:07;;;;;;;27.98;14.10;;;22.00;33.90;;;;;;5089685;28;20487;-72
2021/03/03 03:42:32;;;;;;;24.02;13.05;;;22.00;33.90;;;;;;5073466;28;20120;-72
2021/03/03 03:44:58;;;;;;;25.33;13.32;;;22.00;34.00;;;;;;5090286;28;20452;-72
2021/03/03 03:47:23;;;;;;;27.67;14.07;;;22.00;34.00;;;;;;5092209;28;20024;-72
2021/03/03 03:49:49;;;;;;;23.65;12.65;;;21.90;34.00;;;;;;5074561;28;20051;-72
2021/03/03 03:52:18;;;;;;;24.17;13.20;;;22.00;34.30;;;;;;5092962;28;20538;-72
2021/03/03 03:54:51;;;;;;;22.40;12.45;;;21.90;34.10;;;;;;5091281;28;20119;-72
2021/03/03 03:57:17;;;;;;;24.10;12.07;;;21.90;34.10;;;;;;5093603;28;20026;-72
2021/03/03 04:00:05;;;;;;;22.52;11.38;;;21.90;34.10;;;;;;5092021;28;20017;-72
2021/03/03 04:02:30;;;;;;;22.95;12.95;;;21.90;34.10;;;;;;5091367;28;20024;-72
2021/03/03 04:04:56;;;;;;;27.23;13.35;;;21.90;34.10;;;;;;5091689;28;20043;-72
2021/03/03 04:07:22;;;;;;;28.80;13.93;;;21.90;34.20;;;;;;5091156;28;20028;-71
2021/03/03 04:09:47;;;;;;;27.10;13.25;;;21.90;34.10;;;;;;5088939;28;20043;-72
2021/03/03 04:12:13;;;;;;;26.23;12.68;;;21.90;34.20;;;;;;5086917;28;20036;-72
2021/03/03 04:14:38;;;;;;;27.52;13.25;;;21.90;34.20;;;;;;5093920;28;20016;-72
2021/03/03 04:17:04;;;;;;;27.70;13.65;;;21.90;34.20;;;;;;5093647;28;20059;-72
2021/03/03 04:19:29;;;;;;;28.75;13.30;;;21.90;34.20;;;;;;5090806;28;20024;-72
2021/03/03 04:21:55;;;;;;;27.23;12.10;;;21.90;34.20;;;;;;5093266;28;20031;-72
2021/03/03 04:24:21;;;;;;;25.88;12.80;;;21.90;34.20;;;;;;5092687;28;20063;-72
2021/03/03 04:26:46;;;;;;;25.00;12.93;;;21.90;34.20;;;;;;5084237;28;20052;-72
2021/03/03 04:29:12;;;;;;;25.67;13.65;;;21.90;34.20;;;;;;5086704;28;20027;-72
2021/03/03 04:31:37;;;;;;;26.73;13.23;;;21.90;34.20;;;;;;5091948;28;20074;-72
2021/03/03 04:34:03;;;;;;;23.13;12.65;;;21.90;34.10;;;;;;5091429;28;20028;-73
2021/03/03 04:36:28;;;;;;;28.63;11.75;;;21.90;34.00;;;;;;5089123;28;20020;-73
2021/03/03 04:38:54;;;;;;;31.40;14.10;;;22.00;34.10;;;;;;5097087;28;20490;-73
2021/03/03 04:41:20;;;;;;;29.23;13.73;;;21.90;34.00;;;;;;5092355;28;20091;-72
2021/03/03 04:43:45;;;;;;;26.67;13.20;;;22.00;34.00;;;;;;5094118;28;20032;-72
2021/03/03 04:46:11;;;;;;;27.50;13.88;;;22.00;34.00;;;;;;5088152;28;20039;-72
2021/03/03 04:48:36;;;;;;;26.83;13.95;;;22.00;34.00;;;;;;5090045;28;20020;-72
2021/03/03 04:51:02;;;;;;;26.27;13.00;;;22.00;34.00;;;;;;5092770;28;20099;-72
2021/03/03 04:53:28;;;;;;;28.17;13.80;;;22.00;34.10;;;;;;5089258;28;20036;-73
2021/03/03 04:55:53;;;;;;;25.00;13.32;;;22.00;34.00;;;;;;5084307;28;20441;-73
2021/03/03 04:58:19;;;;;;;27.92;13.10;;;22.00;34.00;;;;;;5084774;28;20032;-72
2021/03/03 05:00:44;;;;;;;20.65;8.57;;;21.90;33.90;;;;;;5092451;28;20475;-72
2021/03/03 05:03:10;;;;;;;1.67;0.82;;;21.90;33.90;;;;;;5073797;28;20043;-72
2021/03/03 05:05:36;;;;;;;2.38;1.30;;;21.90;33.90;;;;;;5092655;28;20078;-71
2021/03/03 05:08:51;;;;;;;5.95;1.60;;;21.90;34.30;;;;;;5090114;28;20039;-71
2021/03/03 05:11:17;;;;;;;0.50;0.50;;;21.90;34.50;;;;;;5088946;28;20028;-71
2021/03/03 05:14:32;;;;;;;1.20;0.85;;;21.90;34.50;;;;;;5093722;28;20024;-71
2021/03/03 05:16:58;;;;;;;1.02;0.88;;;22.00;34.50;;;;;;5088582;28;20099;-72
2021/03/03 05:19:24;;;;;;;3.40;2.25;;;22.10;34.40;;;;;;5092566;28;20093;-72
2021/03/03 05:21:49;;;;;;;2.40;0.80;;;22.10;34.30;;;;;;5091211;28;20112;-72
2021/03/03 05:24:15;;;;;;;2.55;1.33;;;22.20;34.30;;;;;;5088294;28;20123;-72
2021/03/03 05:26:40;;;;;;;6.18;1.17;;;22.30;34.20;;;;;;5085680;28;20035;-71
2021/03/03 05:29:06;;;;;;;0.60;0.60;;;22.40;34.20;;;;;;5085637;28;20031;-71
2021/03/03 05:31:31;;;;;;;0.90;0.80;;;22.40;34.00;;;;;;5086789;28;20556;-71
2021/03/03 05:33:57;;;;;;;1.95;0.77;;;22.50;33.90;;;;;;5090980;28;20024;-71
2021/03/03 05:36:23;;;;;;;2.67;1.27;;;22.60;33.80;;;;;;5086199;28;20071;-71
2021/03/03 05:38:48;;;;;;;3.63;1.42;;;22.60;33.60;;;;;;5091944;28;20027;-71
2021/03/03 05:41:14;;;;;;;2.88;1.10;;;22.70;33.60;;;;;;5093135;28;20032;-71
2021/03/03 05:43:40;;;;;;;2.45;1.20;;;22.70;33.40;;;;;;5091893;28;20526;-71
2021/03/03 05:46:05;;;;;;;3.50;1.65;;;22.80;33.30;;;;;;5090388;28;20028;-72
2021/03/03 05:48:45;;;;;;;2.60;1.65;;;22.90;33.20;;;;;;5091194;28;20020;-71
2021/03/03 05:51:11;;;;;;;4.88;2.38;;;22.90;33.10;;;;;;5083488;28;20110;-72
2021/03/03 05:53:37;;;;;;;2.85;1.35;;;22.90;33.10;;;;;;5091983;28;20106;-72
2021/03/03 05:56:07;;;;;;;1.25;0.93;;;22.90;33.80;;;;;;5083081;28;20020;-72
2021/03/03 05:58:35;;;;;;;12.63;2.65;;;23.00;33.20;;;;;;5084326;28;20016;-72
2021/03/03 06:01:01;;;;;;;0.68;0.68;;;23.00;33.00;;;;;;5089637;28;20115;-72
2021/03/03 06:03:27;;;;;;;2.35;1.05;;;23.00;32.90;;;;;;5092586;28;20499;-72
2021/03/03 06:05:53;;;;;;;5.07;2.00;;;23.00;33.00;;;;;;5091086;28;20028;-72
2021/03/03 06:08:40;;;;;;;4.13;1.70;;;23.00;33.00;;;;;;5090575;28;20379;-71
2021/03/03 06:11:06;;;;;;;2.97;1.70;;;23.00;33.10;;;;;;5082646;28;20028;-71
2021/03/03 06:13:32;;;;;;;1.92;0.88;;;23.10;32.90;;;;;;5087826;28;20093;-71
2021/03/03 06:15:58;;;;;;;1.17;1.02;;;23.20;32.80;;;;;;5098516;28;20072;-71
2021/03/03 06:18:23;;;;;;;8.90;2.78;;;23.20;32.60;;;;;;5092219;28;20031;-71
2021/03/03 06:20:53;;;;;;;11.10;2.28;;;23.30;32.60;;;;;;5090433;28;20101;-71
2021/03/03 06:23:25;;;;;;;16.55;3.47;;;23.40;32.50;;;;;;5087984;28;20388;-72
2021/03/03 06:26:03;;;;;;;8.77;2.22;;;23.30;32.40;;;;;;5076666;28;20033;-72
2021/03/03 06:28:32;;;;;;;2.58;1.55;;;23.40;32.50;;;;;;5083116;28;20024;-72
2021/03/03 06:30:58;;;;;;;6.25;1.70;;;23.40;32.40;;;;;;5087790;28;20052;-72
2021/03/03 06:33:25;;;;;;;1.80;1.45;;;23.40;32.50;;;;;;5089595;28;20031;-72
2021/03/03 06:35:50;;;;;;;4.43;1.35;;;23.40;32.50;;;;;;5073058;28;20031;-72
2021/03/03 06:38:17;;;;;;;8.52;3.42;;;23.40;32.40;;;;;;5093845;28;20012;-72
2021/03/03 06:40:49;;;;;;;1.33;1.10;;;23.40;32.40;;;;;;5089705;28;20495;-72
2021/03/03 06:43:23;;;;;;;6.28;2.33;;;23.40;32.40;;;;;;5086930;28;20028;-72
2021/03/03 06:45:49;;;;;;;11.95;3.58;;;23.40;32.40;;;;;;5088519;28;20389;-72
2021/03/03 06:48:33;;;;;;;17.75;4.20;;;23.40;32.50;;;;;;5088554;28;20047;-72
2021/03/03 06:50:59;;;;;;;4.93;2.42;;;23.50;32.40;;;;;;5088358;28;20032;-72
2021/03/03 06:53:31;;;;;;;4.80;2.47;;;23.40;32.40;;;;;;5091351;28;20027;-72
2021/03/03 06:55:57;;;;;;;4.85;2.45;;;23.40;32.40;;;;;;5080632;28;20032;-72
2021/03/03 06:58:23;;;;;;;12.90;2.63;;;23.40;32.40;;;;;;5091450;28;20027;-72
2021/03/03 07:00:49;;;;;;;8.68;2.63;;;23.40;32.50;;;;;;5089778;28;20078;-72
2021/03/03 07:03:32;;;;;;;3.70;1.60;;;23.40;32.50;;;;;;5087474;28;20036;-72
2021/03/03 07:05:58;;;;;;;4.72;1.80;;;23.40;32.50;;;;;;5085129;28;20089;-71
2021/03/03 07:08:23;;;;;;;10.60;2.88;;;23.40;32.50;;;;;;5091000;28;20024;-72
2021/03/03 07:10:49;;;;;;;6.28;3.03;;;23.40;32.50;;;;;;5088843;28;20032;-72
2021/03/03 07:13:15;;;;;;;5.80;1.55;;;23.40;32.50;;;;;;5088904;28;20032;-72
2021/03/03 07:15:40;;;;;;;6.28;2.92;;;23.40;32.60;;;;;;5089745;28;20074;-72
2021/03/03 07:18:33;;;;;;;3.58;1.30;;;23.40;32.60;;;;;;5088907;28;20459;-72
2021/03/03 07:20:59;;;;;;;7.80;2.53;;;23.40;32.60;;;;;;5080130;28;20032;-72
2021/03/03 07:23:44;;;;;;;16.52;5.53;;;23.40;32.70;;;;;;5086965;28;20024;-72
2021/03/03 07:26:11;;;;;;;4.63;2.30;;;23.30;32.70;;;;;;5076028;28;20113;-70
2021/03/03 07:28:38;;;;;;;7.07;2.65;;;23.30;32.80;;;;;;5083019;28;20376;-70
2021/03/03 07:31:06;;;;;;;8.93;2.08;;;23.30;32.80;;;;;;5051082;28;20135;-72
2021/03/03 07:33:31;;;;;;;13.50;2.28;;;23.30;32.80;;;;;;5081682;28;20141;-70
2021/03/03 07:36:25;;;;;;;7.07;2.17;;;23.20;32.90;;;;;;5086253;28;20040;-71
2021/03/03 07:38:50;;;;;;;9.80;2.95;;;23.30;33.00;;;;;;5112568;28;20066;-70
2021/03/03 07:41:16;;;;;;;14.63;3.17;;;23.30;32.90;;;;;;5072945;28;20024;-70
2021/03/03 07:43:47;;;;;;;7.72;3.35;;;23.30;32.90;;;;;;5089613;28;20419;-70
2021/03/03 07:46:12;;;;;;;8.15;3.08;;;23.30;33.00;;;;;;5071358;28;20032;-70
2021/03/03 07:48:38;;;;;;;5.47;2.83;;;23.30;32.90;;;;;;5091040;28;20020;-71
2021/03/03 07:51:06;;;;;;;7.90;3.03;;;23.30;32.80;;;;;;5068754;28;20564;-70
2021/03/03 07:53:38;;;;;;;5.47;1.33;;;23.40;32.80;;;;;;5079408;28;20024;-70
2021/03/03 07:56:06;;;;;;;5.50;2.22;;;23.30;32.80;;;;;;5079582;28;20021;-71
2021/03/03 07:58:36;;;;;;;5.07;2.78;;;23.30;32.80;;;;;;5062446;28;20492;-70
2021/03/03 08:01:02;;;;;;;11.85;3.40;;;23.40;32.80;;;;;;5078705;28;20019;-71
2021/03/03 08:03:47;;;;;;;4.30;1.58;;;23.40;32.80;;;;;;5085939;28;20085;-70
2021/03/03 08:06:35;;;;;;;7.40;2.78;;;23.40;32.80;;;;;;5084095;28;20111;-70
2021/03/03 08:09:07;;;;;;;10.10;2.60;;;23.30;32.90;;;;;;5083512;28;20036;-70
2021/03/03 08:11:33;;;;;;;5.10;2.38;;;23.30;32.80;;;;;;5084529;28;20020;-70
2021/03/03 08:13:59;;;;;;;4.13;2.05;;;23.30;32.80;;;;;;5083122;28;20020;-70
2021/03/03 08:16:25;;;;;;;6.70;2.78;;;23.30;32.90;;;;;;5083095;28;20031;-70
2021/03/03 08:18:56;;;;;;;8.13;2.15;;;23.30;33.00;;;;;;5085961;28;20030;-70
2021/03/03 08:21:22;;;;;;;8.15;2.97;;;23.30;33.00;;;;;;5083173;28;20023;-70
2021/03/03 08:23:48;;;;;;;2.17;1.52;;;23.30;32.90;;;;;;5084033;28;20502;-70
2021/03/03 08:26:16;;;;;;;0.65;0.65;;;23.30;32.90;;;;;;5076955;28;20056;-70
2021/03/03 08:28:52;;;;;;;11.98;3.45;;;23.30;32.90;;;;;;5084175;28;20107;-70
2021/03/03 08:31:18;;;;;;;3.38;1.25;;;23.30;33.00;;;;;;5087300;28;20052;-70
2021/03/03 08:33:49;;;;;;;2.30;1.42;;;23.30;32.90;;;;;;5083941;28;20077;-71
2021/03/03 08:36:21;;;;;;;4.07;2.35;;;23.30;32.90;;;;;;5083953;28;20024;-71
2021/03/03 08:38:55;;;;;;;5.18;1.92;;;23.30;32.90;;;;;;5083386;28;20021;-76
2021/03/03 08:41:26;;;;;;;12.30;2.17;;;23.20;33.10;;;;;;5083890;28;20028;-76
2021/03/03 08:44:05;;;;;;;7.15;2.38;;;23.30;33.10;;;;;;5083940;28;20036;-76
2021/03/03 08:46:31;;;;;;;4.10;1.38;;;23.30;33.00;;;;;;5067103;28;20012;-76
2021/03/03 08:48:56;;;;;;;6.47;2.40;;;23.30;33.00;;;;;;5083714;28;20634;-75
2021/03/03 08:51:22;;;;;;;6.85;1.25;;;23.30;33.10;;;;;;5083423;28;20114;-76
2021/03/03 08:53:49;;;;;;;7.50;2.83;;;23.30;33.20;;;;;;5083223;28;20036;-76
2021/03/03 08:56:37;;;;;;;8.85;2.15;;;23.30;33.10;;;;;;5082661;28;20055;-75
2021/03/03 08:59:10;;;;;;;1.30;0.95;;;23.30;33.10;;;;;;5083624;28;20027;-76
2021/03/03 09:01:52;;;;;;;6.90;1.92;;;23.30;33.10;;;;;;5066494;28;20491;-76
2021/03/03 09:04:20;;;;;;;6.53;2.85;;;23.30;33.20;;;;;;5082560;28;20035;-75
2021/03/03 09:07:06;;;;;;;4.13;1.65;;;23.30;33.10;;;;;;5090817;28;20032;-76
2021/03/03 09:09:39;;;;;;;12.60;3.03;;;23.30;33.10;;;;;;5093246;28;20561;-76
2021/03/03 09:12:06;;;;;;;7.85;3.05;;;23.40;33.10;;;;;;5093214;28;20483;-77
2021/03/03 09:14:32;;;;;;;3.42;2.47;;;23.40;33.10;;;;;;5088637;28;20428;-77
2021/03/03 09:17:00;;;;;;;9.52;3.42;;;23.40;33.10;;;;;;5099934;28;20036;-77
2021/03/03 09:19:26;;;;;;;2.30;1.83;;;23.40;33.00;;;;;;5088811;28;20023;-78
2021/03/03 09:21:51;;;;;;;1.15;0.73;;;23.50;33.00;;;;;;5091025;28;20092;-77
2021/03/03 09:24:17;;;;;;;3.63;1.85;;;23.50;32.90;;;;;;5091565;28;20032;-78
2021/03/03 09:26:43;;;;;;;2.45;1.55;;;23.60;32.90;;;;;;5092207;28;20039;-78
2021/03/03 09:29:29;;;;;;;1.23;0.90;;;23.60;32.80;;;;;;5091526;28;20020;-77
2021/03/03 09:31:55;;;;;;;3.92;2.38;;;23.70;32.70;;;;;;5087860;28;20047;-77
2021/03/03 09:34:21;;;;;;;3.67;2.10;;;23.80;32.60;;;;;;5077947;28;20028;-78
2021/03/03 09:37:00;;;;;;;1.02;0.82;;;23.80;32.60;;;;;;5081181;28;20150;-77
2021/03/03 09:39:26;;;;;;;3.10;1.52;;;23.80;32.60;;;;;;5082180;28;20103;-76
2021/03/03 09:41:59;;;;;;;0.65;0.65;;;23.80;32.50;;;;;;5063470;28;20135;-78
2021/03/03 09:44:48;;;;;;;2.20;1.25;;;23.90;32.40;;;;;;5050533;28;20032;-77
2021/03/03 09:47:41;;;;;;;1.85;1.33;;;23.90;32.30;;;;;;5065603;28;20028;-77
2021/03/03 09:50:07;;;;;;;0.93;0.65;;;24.00;32.30;;;;;;5081760;28;20060;-78
2021/03/03 09:52:37;;;;;;;0.90;0.90;;;24.00;32.30;;;;;;5087511;28;20123;-77
2021/03/03 09:55:04;;;;;;;5.55;1.67;;;24.00;32.20;;;;;;5057706;28;20038;-78
2021/03/03 09:57:30;;;;;;;1.38;1.20;;;24.10;32.20;;;;;;5074530;28;20039;-78
2021/03/03 09:59:56;;;;;;;4.43;1.73;;;24.10;32.10;;;;;;5090688;28;20024;-77
2021/03/03 10:02:26;;;;;;;9.73;1.80;;;24.20;32.10;;;;;;5073661;28;20036;-77
2021/03/03 10:04:52;;;;;;;2.58;0.88;;;24.20;32.10;;;;;;5079405;28;20461;-78
2021/03/03 10:07:22;;;;;;;1.83;0.90;;;24.20;32.10;;;;;;5088803;28;20046;-78
2021/03/03 10:09:49;;;;;;;1.38;1.27;;;24.30;32.20;;;;;;5087597;28;20024;-78
2021/03/03 10:12:16;;;;;;;0.60;0.60;;;24.30;32.10;;;;;;5085515;28;20024;-77
2021/03/03 10:14:58;;;;;;;1.02;0.93;;;24.30;32.00;;;;;;5080534;28;20025;-77
2021/03/03 10:17:36;;;;;;;2.60;0.77;;;24.40;32.00;;;;;;5082717;28;20059;-77
2021/03/03 10:20:08;;;;;;;1.73;1.45;;;24.40;31.90;;;;;;5084482;28;20020;-76
2021/03/03 10:22:34;;;;;;;1.92;0.88;;;24.50;31.80;;;;;;5082089;28;20028;-77
2021/03/03 10:25:02;;;;;;;0.63;0.63;;;24.50;31.70;;;;;;5087626;28;20043;-77
2021/03/03 10:27:29;;;;;;;1.95;1.13;;;24.50;31.60;;;;;;5072472;28;20031;-77
2021/03/03 10:29:55;;;;;;;0.85;0.80;;;24.60;31.60;;;;;;5068803;28;20040;-77
2021/03/03 10:32:20;;;;;;;1.13;1.02;;;24.60;31.70;;;;;;5090777;28;20492;-77
2021/03/03 10:34:46;;;;;;;1.70;1.05;;;24.70;31.50;;;;;;5085828;28;20542;-78
2021/03/03 10:37:32;;;;;;;1.35;1.05;;;24.70;31.40;;;;;;5078596;28;20455;-77
2021/03/03 10:39:57;;;;;;;1.85;1.17;;;24.80;31.30;;;;;;5073327;28;20086;-78
2021/03/03 10:42:24;;;;;;;2.03;1.15;;;24.80;31.20;;;;;;5071917;28;20036;-78
2021/03/03 10:44:52;;;;;;;3.50;0.98;;;24.90;31.20;;;;;;5088492;28;20113;-78
2021/03/03 10:47:38;;;;;;;3.10;1.27;;;24.90;31.10;;;;;;5091742;28;20020;-77
2021/03/03 10:50:04;;;;;;;;;;;24.90;31.70;;;;;;5102766;28;20023;-77
2021/03/03 10:52:30;;;;;;;;;;;24.90;31.00;;;;;;5093865;28;20356;-78
2021/03/03 10:54:56;;;;;;;3.85;1.70;;;24.90;31.00;;;;;;5094720;28;19908;-78
2021/03/03 10:57:21;;;;;;;1.55;0.88;;;25.00;31.00;;;;;;5089335;28;20040;-78
2021/03/03 10:59:47;;;;;;;0.93;0.93;;;25.00;31.00;;;;;;5083672;28;20031;-77
2021/03/03 11:02:21;;;;;;;4.00;1.20;;;25.00;30.90;;;;;;5084292;28;20028;-77
2021/03/03 11:04:47;;;;;;;1.57;0.93;;;25.00;31.00;;;;;;5057027;28;20028;-77
2021/03/03 11:07:16;;;;;;;1.05;0.95;;;25.00;31.00;;;;;;5090753;28;20028;-77
2021/03/03 11:09:42;;;;;;;3.65;1.70;;;25.00;31.00;;;;;;5073192;28;20036;-77
2021/03/03 11:12:09;;;;;;;2.63;1.40;;;25.00;31.00;;;;;;5089543;28;20031;-78
2021/03/03 11:14:34;;;;;;;2.67;0.88;;;25.10;31.00;;;;;;5071756;28;20423;-78
2021/03/03 11:17:01;;;;;;;2.88;1.08;;;25.10;30.90;;;;;;5090700;28;20039;-78
2021/03/03 11:19:32;;;;;;;1.15;0.93;;;25.20;31.00;;;;;;5090223;28;20065;-78
2021/03/03 11:21:58;;;;;;;2.05;1.38;;;25.20;31.00;;;;;;5091765;28;20024;-78
2021/03/03 11:24:24;;;;;;;1.08;1.00;;;25.30;31.00;;;;;;5087431;28;20032;-78
2021/03/03 11:26:50;;;;;;;1.17;0.95;;;25.30;30.80;;;;;;5075654;28;20554;-78
2021/03/03 11:29:15;;;;;;;1.77;1.58;;;25.40;30.70;;;;;;5057149;28;20048;-78
2021/03/03 11:31:41;;;;;;;9.38;2.70;;;25.50;30.70;;;;;;5088403;28;20048;-78
2021/03/03 11:34:07;;;;;;;7.10;1.35;;;25.60;30.60;;;;;;5093328;28;20514;-79
2021/03/03 11:36:33;;;;;;;2.78;1.73;;;25.60;30.40;;;;;;5089310;28;20032;-78
2021/03/03 11:38:59;;;;;;;3.63;2.17;;;25.70;30.30;;;;;;5075559;28;20412;-79
2021/03/03 11:41:24;;;;;;;3.55;1.75;;;25.80;30.20;;;;;;5086973;28;20023;-79
2021/03/03 11:43:50;;;;;;;2.78;1.42;;;25.80;30.00;;;;;;5080669;28;20090;-78
2021/03/03 11:46:16;;;;;;;3.35;1.13;;;25.90;30.00;;;;;;5074952;28;20087;-79
2021/03/03 11:48:41;;;;;;;1.17;1.05;;;26.00;29.90;;;;;;5094079;28;20040;-78
2021/03/03 11:51:07;;;;;;;0.93;0.70;;;26.00;29.80;;;;;;5093438;28;20395;-78
2021/03/03 11:53:33;;;;;;;3.10;1.00;;;26.00;29.80;;;;;;5092797;28;20169;-77
2021/03/03 11:55:58;;;;;;;3.42;1.55;;;26.10;29.80;;;;;;5093919;28;20077;-78
2021/03/03 11:58:24;;;;;;;2.92;1.35;;;26.10;29.80;;;;;;5094477;28;20546;-79
2021/03/03 12:00:49;;;;;;;5.65;1.20;;;26.10;29.80;;;;;;5094532;28;20031;-78
2021/03/03 12:03:15;;;;;;;5.43;1.45;;;26.20;29.70;;;;;;5090873;28;20166;-77
2021/03/03 12:05:41;;;;;;;1.02;0.93;;;26.20;29.70;;;;;;5092986;28;20423;-78
2021/03/03 12:08:07;;;;;;;4.13;1.15;;;26.20;29.70;;;;;;5093253;28;20016;-78
2021/03/03 12:10:33;;;;;;;2.97;1.45;;;26.20;29.60;;;;;;5094118;28;20036;-79
2021/03/03 12:12:59;;;;;;;1.23;0.85;;;26.20;29.60;;;;;;5075339;28;20042;-79
2021/03/03 12:15:25;;;;;;;2.10;1.05;;;26.20;29.60;;;;;;5075198;28;20042;-78
2021/03/03 12:17:51;;;;;;;0.70;0.70;;;26.20;29.50;;;;;;5090450;28;20485;-79
2021/03/03 12:20:17;;;;;;;0.63;0.63;;;26.20;29.60;;;;;;5093851;28;20023;-79
2021/03/03 12:22:42;;;;;;;0.93;0.90;;;26.20;29.60;;;;;;5074955;28;20134;-78
2021/03/03 12:25:08;;;;;;;11.35;2.22;;;26.20;29.50;;;;;;5092954;28;20099;-79
2021/03/03 12:27:34;;;;;;;3.75;2.33;;;26.20;29.50;;;;;;5074359;28;20040;-78
2021/03/03 12:30:00;;;;;;;3.50;1.45;;;26.20;29.60;;;;;;5094041;28;20082;-78
2021/03/03 12:32:25;;;;;;;5.68;2.08;;;26.10;29.60;;;;;;5076353;28;20040;-78
2021/03/03 12:34:51;;;;;;;1.55;1.25;;;26.10;29.70;;;;;;5082230;28;20032;-78
2021/03/03 12:37:16;;;;;;;2.25;1.40;;;26.20;29.70;;;;;;5094133;28;20472;-78
2021/03/03 12:39:42;;;;;;;3.38;1.23;;;26.10;29.60;;;;;;5091216;28;20028;-78
2021/03/03 12:42:08;;;;;;;2.72;1.13;;;26.20;29.50;;;;;;5091644;28;20136;-77
2021/03/03 12:44:33;;;;;;;3.00;1.55;;;26.30;29.60;;;;;;5093203;28;20047;-78